sensor_id;sensor_type;location;lat;lon;timestamp;pressure;altitude;pressure_sealevel;temperature;humidity
73171;BME280;61381;50.118;19.962;2024-03-02T00:00:37;97862.97;;;11.59;82.31
73171;BME280;61381;50.118;19.962;2024-03-02T00:05:58;97862.81;;;11.65;81.35
73171;BME280;61381;50.118;19.962;2024-03-02T00:11:00;97865.19;;;11.66;81.76
73171;BME280;61381;50.118;19.962;2024-03-02T00:16:03;97870.50;;;11.57;82.18
73171;BME280;61381;50.118;19.962;2024-03-02T00:21:06;97871.56;;;11.48;82.56
73171;BME280;61381;50.118;19.962;2024-03-02T00:26:11;97866.38;;;11.51;82.09
73171;BME280;61381;50.118;19.962;2024-03-02T00:31:14;97874.34;;;11.65;80.85
73171;BME280;61381;50.118;19.962;2024-03-02T00:36:16;97880.31;;;11.85;80.39
73171;BME280;61381;50.118;19.962;2024-03-02T00:41:23;97874.00;;;12.12;78.21
73171;BME280;61381;50.118;19.962;2024-03-02T00:46:27;97876.84;;;11.62;80.05
73171;BME280;61381;50.118;19.962;2024-03-02T00:51:30;97873.63;;;11.28;81.83
73171;BME280;61381;50.118;19.962;2024-03-02T00:56:32;97860.94;;;11.20;83.14
73171;BME280;61381;50.118;19.962;2024-03-02T01:01:34;97852.06;;;11.33;83.08
73171;BME280;61381;50.118;19.962;2024-03-02T01:06:35;97841.56;;;11.00;85.14
73171;BME280;61381;50.118;19.962;2024-03-02T01:11:36;97839.66;;;11.01;84.78
73171;BME280;61381;50.118;19.962;2024-03-02T01:16:38;97840.34;;;11.29;83.62
73171;BME280;61381;50.118;19.962;2024-03-02T01:21:39;97833.16;;;11.38;82.80
73171;BME280;61381;50.118;19.962;2024-03-02T01:26:40;97825.00;;;11.21;83.09
73171;BME280;61381;50.118;19.962;2024-03-02T01:31:42;97831.47;;;11.20;83.70
73171;BME280;61381;50.118;19.962;2024-03-02T01:36:43;97828.16;;;11.23;83.00
73171;BME280;61381;50.118;19.962;2024-03-02T01:41:44;97810.03;;;10.33;87.42
73171;BME280;61381;50.118;19.962;2024-03-02T01:46:46;97794.56;;;10.44;88.76
73171;BME280;61381;50.118;19.962;2024-03-02T01:51:47;97781.94;;;10.58;86.84
73171;BME280;61381;50.118;19.962;2024-03-02T01:56:48;97793.28;;;10.78;85.85
73171;BME280;61381;50.118;19.962;2024-03-02T02:01:50;97794.66;;;10.89;85.42
73171;BME280;61381;50.118;19.962;2024-03-02T02:06:51;97800.97;;;10.93;85.04
73171;BME280;61381;50.118;19.962;2024-03-02T02:11:52;97811.59;;;11.75;80.63
73171;BME280;61381;50.118;19.962;2024-03-02T02:16:54;97819.94;;;11.96;78.64
73171;BME280;61381;50.118;19.962;2024-03-02T02:21:57;97814.84;;;11.32;81.07
73171;BME280;61381;50.118;19.962;2024-03-02T02:26:57;97805.44;;;11.43;80.62
73171;BME280;61381;50.118;19.962;2024-03-02T02:31:58;97802.41;;;10.26;86.38
73171;BME280;61381;50.118;19.962;2024-03-02T02:37:01;97799.72;;;10.26;87.75
73171;BME280;61381;50.118;19.962;2024-03-02T02:42:02;97794.16;;;10.37;86.88
73171;BME280;61381;50.118;19.962;2024-03-02T02:47:03;97794.44;;;10.49;85.93
73171;BME280;61381;50.118;19.962;2024-03-02T02:52:05;97801.09;;;10.10;88.08
73171;BME280;61381;50.118;19.962;2024-03-02T02:57:06;97786.09;;;10.50;85.44
73171;BME280;61381;50.118;19.962;2024-03-02T03:02:07;97790.09;;;10.11;87.41
73171;BME280;61381;50.118;19.962;2024-03-02T03:07:09;97793.97;;;10.83;84.95
73171;BME280;61381;50.118;19.962;2024-03-02T03:12:10;97799.19;;;10.66;83.66
73171;BME280;61381;50.118;19.962;2024-03-02T03:17:11;97796.16;;;11.04;81.49
73171;BME280;61381;50.118;19.962;2024-03-02T03:22:13;97791.69;;;10.40;85.98
73171;BME280;61381;50.118;19.962;2024-03-02T03:27:14;97791.00;;;9.93;89.00
73171;BME280;61381;50.118;19.962;2024-03-02T03:32:15;97784.34;;;9.90;88.73
73171;BME280;61381;50.118;19.962;2024-03-02T03:37:17;97780.91;;;9.90;89.98
73171;BME280;61381;50.118;19.962;2024-03-02T03:42:18;97792.66;;;10.16;88.18
73171;BME280;61381;50.118;19.962;2024-03-02T03:47:18;97785.41;;;10.59;84.85
73171;BME280;61381;50.118;19.962;2024-03-02T03:52:21;97782.97;;;10.21;86.38
73171;BME280;61381;50.118;19.962;2024-03-02T03:57:21;97775.84;;;9.88;87.87
73171;BME280;61381;50.118;19.962;2024-03-02T04:02:22;97775.06;;;10.02;86.66
73171;BME280;61381;50.118;19.962;2024-03-02T04:07:24;97773.06;;;9.66;89.29
73171;BME280;61381;50.118;19.962;2024-03-02T04:12:25;97771.19;;;9.94;89.50
73171;BME280;61381;50.118;19.962;2024-03-02T04:17:26;97771.47;;;9.78;89.17
73171;BME280;61381;50.118;19.962;2024-03-02T04:22:28;97776.53;;;10.22;86.39
73171;BME280;61381;50.118;19.962;2024-03-02T04:27:29;97780.31;;;9.93;87.00
73171;BME280;61381;50.118;19.962;2024-03-02T04:32:30;97797.94;;;10.49;84.07
73171;BME280;61381;50.118;19.962;2024-03-02T04:37:34;97802.16;;;10.50;84.08
73171;BME280;61381;50.118;19.962;2024-03-02T04:42:35;97793.09;;;10.10;85.55
73171;BME280;61381;50.118;19.962;2024-03-02T04:47:36;97780.88;;;10.45;84.16
73171;BME280;61381;50.118;19.962;2024-03-02T04:52:38;97766.59;;;9.53;88.95
73171;BME280;61381;50.118;19.962;2024-03-02T04:57:39;97773.63;;;10.32;84.83
73171;BME280;61381;50.118;19.962;2024-03-02T05:02:39;97768.19;;;9.68;88.04
73171;BME280;61381;50.118;19.962;2024-03-02T05:07:42;97776.28;;;10.32;85.74
73171;BME280;61381;50.118;19.962;2024-03-02T05:12:43;97786.72;;;9.64;89.46
73171;BME280;61381;50.118;19.962;2024-03-02T05:17:43;97789.09;;;10.21;87.67
73171;BME280;61381;50.118;19.962;2024-03-02T05:22:45;97807.75;;;9.98;86.99
73171;BME280;61381;50.118;19.962;2024-03-02T05:27:46;97810.31;;;9.90;86.75
73171;BME280;61381;50.118;19.962;2024-03-02T05:32:47;97815.31;;;9.50;89.85
73171;BME280;61381;50.118;19.962;2024-03-02T05:37:49;97823.69;;;9.76;90.25
73171;BME280;61381;50.118;19.962;2024-03-02T05:42:50;97834.94;;;10.33;86.79
73171;BME280;61381;50.118;19.962;2024-03-02T05:47:51;97829.84;;;10.04;86.83
73171;BME280;61381;50.118;19.962;2024-03-02T05:52:53;97835.31;;;10.13;87.21
73171;BME280;61381;50.118;19.962;2024-03-02T05:57:54;97830.53;;;10.24;87.20
73171;BME280;61381;50.118;19.962;2024-03-02T06:02:55;97822.81;;;10.08;88.63
73171;BME280;61381;50.118;19.962;2024-03-02T06:07:57;97827.41;;;10.35;88.28
73171;BME280;61381;50.118;19.962;2024-03-02T06:12:58;97834.69;;;10.58;86.27
73171;BME280;61381;50.118;19.962;2024-03-02T06:17:59;97838.69;;;10.18;87.38
73171;BME280;61381;50.118;19.962;2024-03-02T06:23:01;97841.75;;;10.12;88.94
73171;BME280;61381;50.118;19.962;2024-03-02T06:28:02;97842.63;;;10.07;89.71
73171;BME280;61381;50.118;19.962;2024-03-02T06:33:04;97850.94;;;9.92;90.39
73171;BME280;61381;50.118;19.962;2024-03-02T06:38:06;97827.19;;;10.82;86.60
73171;BME280;61381;50.118;19.962;2024-03-02T06:43:07;97836.50;;;10.99;85.64
73171;BME280;61381;50.118;19.962;2024-03-02T06:48:08;97845.28;;;11.58;82.97
73171;BME280;61381;50.118;19.962;2024-03-02T06:53:10;97852.06;;;11.33;83.00
73171;BME280;61381;50.118;19.962;2024-03-02T06:58:11;97856.13;;;11.08;84.25
73171;BME280;61381;50.118;19.962;2024-03-02T07:03:12;97844.81;;;11.34;83.60
73171;BME280;61381;50.118;19.962;2024-03-02T07:08:15;97856.75;;;11.28;83.57
73171;BME280;61381;50.118;19.962;2024-03-02T07:13:16;97864.03;;;11.81;80.82
73171;BME280;61381;50.118;19.962;2024-03-02T07:18:16;97852.97;;;11.29;83.76
73171;BME280;61381;50.118;19.962;2024-03-02T07:23:19;97866.03;;;11.44;82.61
73171;BME280;61381;50.118;19.962;2024-03-02T07:28:20;97864.34;;;11.34;84.58
73171;BME280;61381;50.118;19.962;2024-03-02T07:33:20;97876.84;;;11.39;83.38
73171;BME280;61381;50.118;19.962;2024-03-02T07:38:23;97874.09;;;11.75;81.94
73171;BME280;61381;50.118;19.962;2024-03-02T07:43:24;97871.84;;;11.69;81.80
73171;BME280;61381;50.118;19.962;2024-03-02T07:48:25;97893.47;;;12.75;78.05
73171;BME280;61381;50.118;19.962;2024-03-02T07:53:27;97885.69;;;12.56;78.69
73171;BME280;61381;50.118;19.962;2024-03-02T07:58:28;97903.31;;;13.15;76.71
73171;BME280;61381;50.118;19.962;2024-03-02T08:03:29;97897.63;;;12.99;75.56
73171;BME280;61381;50.118;19.962;2024-03-02T08:08:32;97902.69;;;13.18;76.38
73171;BME280;61381;50.118;19.962;2024-03-02T08:13:33;97901.44;;;13.24;75.21
73171;BME280;61381;50.118;19.962;2024-03-02T08:18:34;97896.66;;;12.95;76.56
73171;BME280;61381;50.118;19.962;2024-03-02T08:23:36;97893.16;;;12.28;78.94
73171;BME280;61381;50.118;19.962;2024-03-02T08:28:37;97889.34;;;12.60;78.74
73171;BME280;61381;50.118;19.962;2024-03-02T08:33:38;97893.16;;;12.77;77.45
73171;BME280;61381;50.118;19.962;2024-03-02T08:38:40;97893.19;;;12.94;77.04
73171;BME280;61381;50.118;19.962;2024-03-02T08:43:42;97902.53;;;12.88;79.00
73171;BME280;61381;50.118;19.962;2024-03-02T08:48:43;97909.97;;;12.91;77.67
73171;BME280;61381;50.118;19.962;2024-03-02T08:53:45;97904.59;;;13.09;78.03
73171;BME280;61381;50.118;19.962;2024-03-02T08:58:46;97919.34;;;13.37;75.22
73171;BME280;61381;50.118;19.962;2024-03-02T09:03:47;97915.38;;;13.17;77.82
73171;BME280;61381;50.118;19.962;2024-03-02T09:08:49;97925.94;;;13.93;74.09
73171;BME280;61381;50.118;19.962;2024-03-02T09:13:50;97925.06;;;13.45;76.59
73171;BME280;61381;50.118;19.962;2024-03-02T09:18:51;97927.06;;;13.30;76.43
73171;BME280;61381;50.118;19.962;2024-03-02T09:23:54;97927.66;;;12.83;78.29
73171;BME280;61381;50.118;19.962;2024-03-02T09:28:54;97928.44;;;12.84;79.11
73171;BME280;61381;50.118;19.962;2024-03-02T09:33:55;97928.44;;;12.84;80.24
73171;BME280;61381;50.118;19.962;2024-03-02T09:38:57;97946.22;;;13.29;78.27
73171;BME280;61381;50.118;19.962;2024-03-02T09:43:59;97950.38;;;13.52;77.55
73171;BME280;61381;50.118;19.962;2024-03-02T09:49:00;97960.28;;;14.13;74.54
73171;BME280;61381;50.118;19.962;2024-03-02T09:54:03;97956.41;;;13.41;77.64
73171;BME280;61381;50.118;19.962;2024-03-02T09:59:03;97969.03;;;13.84;75.63
73171;BME280;61381;50.118;19.962;2024-03-02T10:04:05;97959.38;;;14.48;73.04
73171;BME280;61381;50.118;19.962;2024-03-02T10:09:07;97962.09;;;14.48;72.37
73171;BME280;61381;50.118;19.962;2024-03-02T10:14:08;97963.09;;;14.73;73.16
73171;BME280;61381;50.118;19.962;2024-03-02T10:19:16;97962.19;;;14.60;73.25
73171;BME280;61381;50.118;19.962;2024-03-02T10:24:21;97954.78;;;13.66;77.09
73171;BME280;61381;50.118;19.962;2024-03-02T10:29:22;97957.88;;;14.29;74.58
73171;BME280;61381;50.118;19.962;2024-03-02T10:34:23;97958.19;;;14.27;74.81
73171;BME280;61381;50.118;19.962;2024-03-02T10:39:25;97953.03;;;14.52;73.31
73171;BME280;61381;50.118;19.962;2024-03-02T10:44:27;97951.94;;;14.44;73.10
73171;BME280;61381;50.118;19.962;2024-03-02T10:49:29;97945.63;;;15.72;67.29
73171;BME280;61381;50.118;19.962;2024-03-02T10:54:31;97947.31;;;15.98;66.77
73171;BME280;61381;50.118;19.962;2024-03-02T10:59:33;97952.19;;;16.17;64.30
73171;BME280;61381;50.118;19.962;2024-03-02T11:04:35;97944.72;;;16.72;63.07
73171;BME280;61381;50.118;19.962;2024-03-02T11:09:41;97935.13;;;16.37;64.74
73171;BME280;61381;50.118;19.962;2024-03-02T11:14:42;97938.13;;;16.11;66.24
73171;BME280;61381;50.118;19.962;2024-03-02T11:19:44;97938.84;;;17.60;61.08
73171;BME280;61381;50.118;19.962;2024-03-02T11:24:50;97942.75;;;18.03;59.10
73171;BME280;61381;50.118;19.962;2024-03-02T11:29:51;97934.09;;;17.16;62.35
73171;BME280;61381;50.118;19.962;2024-03-02T11:34:52;97945.88;;;17.89;60.38
73171;BME280;61381;50.118;19.962;2024-03-02T11:39:54;97943.84;;;17.45;61.02
73171;BME280;61381;50.118;19.962;2024-03-02T11:44:56;97935.72;;;17.05;62.24
73171;BME280;61381;50.118;19.962;2024-03-02T11:49:58;97930.25;;;17.58;61.32
73171;BME280;61381;50.118;19.962;2024-03-02T11:55:02;97933.19;;;17.65;60.86
73171;BME280;61381;50.118;19.962;2024-03-02T12:00:05;97920.16;;;17.42;61.88
73171;BME280;61381;50.118;19.962;2024-03-02T12:05:07;97917.31;;;16.86;64.72
73171;BME280;61381;50.118;19.962;2024-03-02T12:10:11;97932.19;;;17.04;64.05
73171;BME280;61381;50.118;19.962;2024-03-02T12:15:12;97925.94;;;17.69;61.58
73171;BME280;61381;50.118;19.962;2024-03-02T12:20:13;97928.69;;;17.16;63.19
73171;BME280;61381;50.118;19.962;2024-03-02T12:25:15;97926.06;;;18.01;60.92
73171;BME280;61381;50.118;19.962;2024-03-02T12:30:17;97921.88;;;16.94;64.73
73171;BME280;61381;50.118;19.962;2024-03-02T12:35:18;97925.56;;;18.27;60.21
73171;BME280;61381;50.118;19.962;2024-03-02T12:40:21;97929.47;;;18.14;60.84
73171;BME280;61381;50.118;19.962;2024-03-02T12:45:22;97943.91;;;18.66;58.09
73171;BME280;61381;50.118;19.962;2024-03-02T12:50:22;97938.94;;;19.19;56.72
73171;BME280;61381;50.118;19.962;2024-03-02T12:55:25;97925.16;;;18.93;56.00
73171;BME280;61381;50.118;19.962;2024-03-02T13:00:26;97914.31;;;19.48;53.38
73171;BME280;61381;50.118;19.962;2024-03-02T13:05:29;97921.31;;;19.68;53.08
73171;BME280;61381;50.118;19.962;2024-03-02T13:10:32;97916.44;;;19.58;53.47
73171;BME280;61381;50.118;19.962;2024-03-02T13:15:33;97926.50;;;19.18;53.68
73171;BME280;61381;50.118;19.962;2024-03-02T13:20:34;97919.19;;;19.77;54.01
73171;BME280;61381;50.118;19.962;2024-03-02T13:25:36;97917.06;;;19.12;54.54
73171;BME280;61381;50.118;19.962;2024-03-02T13:30:37;97914.06;;;18.98;54.49
73171;BME280;61381;50.118;19.962;2024-03-02T13:35:38;97906.25;;;19.51;51.99
73171;BME280;61381;50.118;19.962;2024-03-02T13:40:40;97923.59;;;19.27;53.86
73171;BME280;61381;50.118;19.962;2024-03-02T13:45:41;97910.13;;;18.63;56.19
73171;BME280;61381;50.118;19.962;2024-03-02T13:50:42;97912.75;;;19.47;53.25
73171;BME280;61381;50.118;19.962;2024-03-02T13:55:44;97916.25;;;19.47;53.22
73171;BME280;61381;50.118;19.962;2024-03-02T14:00:45;97920.38;;;20.23;51.21
73171;BME280;61381;50.118;19.962;2024-03-02T14:05:46;97923.03;;;19.76;50.88
73171;BME280;61381;50.118;19.962;2024-03-02T14:10:48;97904.25;;;18.77;53.41
73171;BME280;61381;50.118;19.962;2024-03-02T14:15:49;97903.06;;;19.10;52.76
73171;BME280;61381;50.118;19.962;2024-03-02T14:20:50;97915.13;;;18.93;54.25
73171;BME280;61381;50.118;19.962;2024-03-02T14:25:52;97923.53;;;18.56;55.30
73171;BME280;61381;50.118;19.962;2024-03-02T14:30:53;97919.72;;;19.09;54.78
73171;BME280;61381;50.118;19.962;2024-03-02T14:35:54;97915.72;;;18.86;54.74
73171;BME280;61381;50.118;19.962;2024-03-02T14:40:56;97916.97;;;18.41;57.45
73171;BME280;61381;50.118;19.962;2024-03-02T14:45:58;97908.88;;;19.28;55.77
73171;BME280;61381;50.118;19.962;2024-03-02T14:50:59;97908.31;;;18.20;58.73
73171;BME280;61381;50.118;19.962;2024-03-02T14:56:01;97903.84;;;18.27;59.65
73171;BME280;61381;50.118;19.962;2024-03-02T15:01:03;97892.25;;;17.82;62.20
73171;BME280;61381;50.118;19.962;2024-03-02T15:06:05;97891.25;;;17.75;63.07
73171;BME280;61381;50.118;19.962;2024-03-02T15:11:07;97882.13;;;17.51;65.10
73171;BME280;61381;50.118;19.962;2024-03-02T15:16:08;97880.59;;;16.85;66.64
73171;BME280;61381;50.118;19.962;2024-03-02T15:21:09;97876.16;;;17.17;67.31
73171;BME280;61381;50.118;19.962;2024-03-02T15:26:11;97872.66;;;17.04;68.07
73171;BME280;61381;50.118;19.962;2024-03-02T15:31:12;97869.56;;;17.59;66.01
73171;BME280;61381;50.118;19.962;2024-03-02T15:36:13;97862.69;;;16.68;69.88
73171;BME280;61381;50.118;19.962;2024-03-02T15:41:15;97867.63;;;16.78;68.80
73171;BME280;61381;50.118;19.962;2024-03-02T15:46:16;97878.59;;;17.22;66.46
73171;BME280;61381;50.118;19.962;2024-03-02T15:51:17;97873.16;;;16.20;69.11
73171;BME280;61381;50.118;19.962;2024-03-02T15:56:19;97866.53;;;16.42;69.80
73171;BME280;61381;50.118;19.962;2024-03-02T16:01:20;97865.19;;;16.36;68.99
73171;BME280;61381;50.118;19.962;2024-03-02T16:06:21;97858.53;;;16.21;70.08
73171;BME280;61381;50.118;19.962;2024-03-02T16:11:23;97866.69;;;15.54;73.05
73171;BME280;61381;50.118;19.962;2024-03-02T16:16:24;97864.13;;;15.91;72.04
73171;BME280;61381;50.118;19.962;2024-03-02T16:21:25;97859.28;;;16.09;71.65
73171;BME280;61381;50.118;19.962;2024-03-02T16:26:27;97859.28;;;16.09;72.11
73171;BME280;61381;50.118;19.962;2024-03-02T16:31:28;97863.59;;;15.43;74.57
73171;BME280;61381;50.118;19.962;2024-03-02T16:36:28;97867.84;;;15.32;74.67
73171;BME280;61381;50.118;19.962;2024-03-02T16:41:31;97882.03;;;15.96;72.25
73171;BME280;61381;50.118;19.962;2024-03-02T16:46:32;97870.91;;;14.50;77.80
73171;BME280;61381;50.118;19.962;2024-03-02T16:51:38;97872.75;;;15.51;72.91
73171;BME280;61381;50.118;19.962;2024-03-02T16:56:41;97866.91;;;15.82;72.08
73171;BME280;61381;50.118;19.962;2024-03-02T17:01:42;97870.03;;;15.18;74.35
73171;BME280;61381;50.118;19.962;2024-03-02T17:06:43;97869.03;;;15.22;73.97
73171;BME280;61381;50.118;19.962;2024-03-02T17:11:45;97875.66;;;15.04;75.04
73171;BME280;61381;50.118;19.962;2024-03-02T17:16:46;97881.19;;;14.86;75.60
73171;BME280;61381;50.118;19.962;2024-03-02T17:21:47;97887.50;;;15.54;72.43
73171;BME280;61381;50.118;19.962;2024-03-02T17:26:49;97882.78;;;15.08;74.06
73171;BME280;61381;50.118;19.962;2024-03-02T17:31:50;97883.03;;;14.73;75.82
73171;BME280;61381;50.118;19.962;2024-03-02T17:36:51;97876.53;;;14.36;78.31
73171;BME280;61381;50.118;19.962;2024-03-02T17:41:53;97882.38;;;14.38;78.45
73171;BME280;61381;50.118;19.962;2024-03-02T17:46:54;97880.09;;;14.10;78.99
73171;BME280;61381;50.118;19.962;2024-03-02T17:51:55;97881.94;;;14.27;78.70
73171;BME280;61381;50.118;19.962;2024-03-02T17:56:57;97876.00;;;14.13;79.00
73171;BME280;61381;50.118;19.962;2024-03-02T18:01:58;97875.81;;;14.18;78.29
73171;BME280;61381;50.118;19.962;2024-03-02T18:06:58;97879.53;;;13.87;79.28
73171;BME280;61381;50.118;19.962;2024-03-02T18:12:01;97863.91;;;14.19;78.23
73171;BME280;61381;50.118;19.962;2024-03-02T18:17:02;97873.19;;;14.00;78.40
73171;BME280;61381;50.118;19.962;2024-03-02T18:22:02;97873.91;;;14.18;77.23
73171;BME280;61381;50.118;19.962;2024-03-02T18:27:05;97888.13;;;14.66;74.84
73171;BME280;61381;50.118;19.962;2024-03-02T18:32:06;97877.84;;;14.21;76.31
73171;BME280;61381;50.118;19.962;2024-03-02T18:37:07;97877.72;;;14.08;76.99
73171;BME280;61381;50.118;19.962;2024-03-02T18:42:09;97883.06;;;13.87;78.32
73171;BME280;61381;50.118;19.962;2024-03-02T18:47:10;97886.97;;;13.90;77.78
73171;BME280;61381;50.118;19.962;2024-03-02T18:52:11;97878.31;;;13.76;78.31
73171;BME280;61381;50.118;19.962;2024-03-02T18:57:14;97872.53;;;14.03;76.64
73171;BME280;61381;50.118;19.962;2024-03-02T19:02:14;97877.31;;;13.98;76.27
73171;BME280;61381;50.118;19.962;2024-03-02T19:07:15;97875.22;;;14.12;74.85
73171;BME280;61381;50.118;19.962;2024-03-02T19:12:17;97873.53;;;14.28;74.37
73171;BME280;61381;50.118;19.962;2024-03-02T19:17:18;97876.63;;;14.48;73.06
73171;BME280;61381;50.118;19.962;2024-03-02T19:22:19;97877.47;;;14.40;72.81
73171;BME280;61381;50.118;19.962;2024-03-02T19:27:21;97869.09;;;14.33;73.66
73171;BME280;61381;50.118;19.962;2024-03-02T19:32:22;97874.63;;;14.36;73.05
73171;BME280;61381;50.118;19.962;2024-03-02T19:37:23;97878.41;;;14.74;71.44
73171;BME280;61381;50.118;19.962;2024-03-02T19:42:25;97882.06;;;15.20;69.30
73171;BME280;61381;50.118;19.962;2024-03-02T19:47:26;97875.34;;;14.84;70.41
73171;BME280;61381;50.118;19.962;2024-03-02T19:52:27;97872.63;;;14.54;71.13
73171;BME280;61381;50.118;19.962;2024-03-02T19:57:29;97881.06;;;14.44;71.85
73171;BME280;61381;50.118;19.962;2024-03-02T20:02:30;97874.03;;;14.31;72.71
73171;BME280;61381;50.118;19.962;2024-03-02T20:07:31;97872.28;;;13.87;75.02
73171;BME280;61381;50.118;19.962;2024-03-02T20:12:33;97874.41;;;14.12;74.28
73171;BME280;61381;50.118;19.962;2024-03-02T20:17:36;97871.53;;;13.69;76.13
73171;BME280;61381;50.118;19.962;2024-03-02T20:22:37;97871.78;;;13.94;74.93
73171;BME280;61381;50.118;19.962;2024-03-02T20:27:39;97870.94;;;13.37;77.01
73171;BME280;61381;50.118;19.962;2024-03-02T20:32:40;97863.47;;;13.08;78.52
73171;BME280;61381;50.118;19.962;2024-03-02T20:37:42;97860.63;;;12.96;78.98
73171;BME280;61381;50.118;19.962;2024-03-02T20:42:44;97854.59;;;13.16;78.43
73171;BME280;61381;50.118;19.962;2024-03-02T20:47:45;97863.31;;;13.48;nan
73171;BME280;61381;50.118;19.962;2024-03-02T20:52:46;97871.88;;;13.42;77.28
73171;BME280;61381;50.118;19.962;2024-03-02T20:57:48;97867.13;;;13.38;77.62
73171;BME280;61381;50.118;19.962;2024-03-02T21:02:49;97860.28;;;13.06;78.38
73171;BME280;61381;50.118;19.962;2024-03-02T21:07:50;97868.06;;;13.25;77.97
73171;BME280;61381;50.118;19.962;2024-03-02T21:12:52;97865.50;;;12.85;79.76
73171;BME280;61381;50.118;19.962;2024-03-02T21:17:53;97864.06;;;12.88;79.49
73171;BME280;61381;50.118;19.962;2024-03-02T21:22:53;97870.25;;;13.58;76.02
73171;BME280;61381;50.118;19.962;2024-03-02T21:27:56;97866.97;;;13.26;77.37
73171;BME280;61381;50.118;19.962;2024-03-02T21:32:57;97860.59;;;13.05;78.25
73171;BME280;61381;50.118;19.962;2024-03-02T21:37:58;97858.72;;;12.96;78.88
73171;BME280;61381;50.118;19.962;2024-03-02T21:43:00;97862.16;;;12.71;80.34
73171;BME280;61381;50.118;19.962;2024-03-02T21:48:01;97866.72;;;12.61;80.23
73171;BME280;61381;50.118;19.962;2024-03-02T21:53:01;97865.63;;;12.62;80.13
73171;BME280;61381;50.118;19.962;2024-03-02T21:58:04;97861.41;;;12.79;79.71
73171;BME280;61381;50.118;19.962;2024-03-02T22:03:05;97875.13;;;12.86;78.75
73171;BME280;61381;50.118;19.962;2024-03-02T22:08:06;97865.59;;;12.54;80.75
73171;BME280;61381;50.118;19.962;2024-03-02T22:13:08;97869.94;;;13.07;78.46
73171;BME280;61381;50.118;19.962;2024-03-02T22:18:09;97867.72;;;12.83;78.40
73171;BME280;61381;50.118;19.962;2024-03-02T22:23:10;97865.03;;;12.83;78.19
73171;BME280;61381;50.118;19.962;2024-03-02T22:28:12;97855.69;;;12.89;78.25
73171;BME280;61381;50.118;19.962;2024-03-02T22:33:13;97857.88;;;12.61;79.23
73171;BME280;61381;50.118;19.962;2024-03-02T22:38:14;97865.75;;;12.48;79.75
73171;BME280;61381;50.118;19.962;2024-03-02T22:43:16;97863.72;;;12.54;80.08
73171;BME280;61381;50.118;19.962;2024-03-02T22:48:17;97862.44;;;12.52;79.40
73171;BME280;61381;50.118;19.962;2024-03-02T22:53:18;97872.50;;;12.28;80.05
73171;BME280;61381;50.118;19.962;2024-03-02T22:58:20;97861.75;;;12.37;80.48
73171;BME280;61381;50.118;19.962;2024-03-02T23:03:21;97858.88;;;12.25;80.71
73171;BME280;61381;50.118;19.962;2024-03-02T23:08:22;97861.81;;;12.06;81.58
73171;BME280;61381;50.118;19.962;2024-03-02T23:13:24;97857.88;;;12.12;81.10
73171;BME280;61381;50.118;19.962;2024-03-02T23:18:25;97845.03;;;12.00;81.54
73171;BME280;61381;50.118;19.962;2024-03-02T23:23:26;97844.91;;;11.51;83.06
73171;BME280;61381;50.118;19.962;2024-03-02T23:28:28;97852.28;;;11.23;86.33
73171;BME280;61381;50.118;19.962;2024-03-02T23:33:29;97849.63;;;11.23;86.43
73171;BME280;61381;50.118;19.962;2024-03-02T23:38:30;97847.47;;;11.56;84.82
73171;BME280;61381;50.118;19.962;2024-03-02T23:43:32;97847.44;;;11.79;82.92
73171;BME280;61381;50.118;19.962;2024-03-02T23:48:33;97848.31;;;12.37;79.92
73171;BME280;61381;50.118;19.962;2024-03-02T23:53:34;97846.06;;;12.88;76.91
73171;BME280;61381;50.118;19.962;2024-03-02T23:58:36;97846.19;;;12.65;77.51
